Ocklawaha, Florida
Current Conditions -  °F | °C
As of 11:53 PM on Thursday 30 Oct 2014 (Local Time) from KLEE Reporting Station
Overcast Overcast  
Wind Chill: 70°   Ceiling: 7000
Heat Index: 70°   Visibility: 10mi
Dew Point: 65°   Wind: 0mph
Humidity: 84%   Direction: NA
Pressure: 29.91"   Gusts: NA
Location:  29.07°N, 81.91°W
Report Text: KLEE 310353Z AUTO 00000KT 10SM OVC070 21/18 A2991 RMK AO2 SLP127 T02110183
Loading
Personal Weather Stations






























Interactive Weather Map
Tropical Storm Tracking
New forecast layout! Learn more

10-Day Weather Forecast

Advertisements
Track Severe Weather on mobile